sensor_id;sensor_type;location;lat;lon;timestamp;pressure;altitude;pressure_sealevel;temperature;humidity
73429;BME280;61643;49.564;17.412;2023-10-31T00:01:07;96614.56;;;15.70;92.38
73429;BME280;61643;49.564;17.412;2023-10-31T00:03:33;96626.03;;;15.75;92.65
73429;BME280;61643;49.564;17.412;2023-10-31T00:05:59;96608.50;;;15.73;92.69
73429;BME280;61643;49.564;17.412;2023-10-31T00:08:25;96596.97;;;15.76;92.48
73429;BME280;61643;49.564;17.412;2023-10-31T00:10:51;96599.56;;;15.72;92.49
73429;BME280;61643;49.564;17.412;2023-10-31T00:13:17;96593.78;;;15.74;91.91
73429;BME280;61643;49.564;17.412;2023-10-31T00:15:43;96581.69;;;15.71;92.28
73429;BME280;61643;49.564;17.412;2023-10-31T00:18:09;96573.69;;;15.75;91.51
73429;BME280;61643;49.564;17.412;2023-10-31T00:20:35;96559.19;;;15.71;91.68
73429;BME280;61643;49.564;17.412;2023-10-31T00:23:00;96563.50;;;15.72;91.12
73429;BME280;61643;49.564;17.412;2023-10-31T00:25:26;96539.03;;;15.81;90.56
73429;BME280;61643;49.564;17.412;2023-10-31T00:27:52;96524.88;;;15.75;90.53
73429;BME280;61643;49.564;17.412;2023-10-31T00:30:18;96541.41;;;15.82;89.95
73429;BME280;61643;49.564;17.412;2023-10-31T00:32:44;96529.75;;;15.82;90.57
73429;BME280;61643;49.564;17.412;2023-10-31T00:35:10;96534.06;;;15.83;89.17
73429;BME280;61643;49.564;17.412;2023-10-31T00:37:38;96533.75;;;15.84;89.32
73429;BME280;61643;49.564;17.412;2023-10-31T00:40:08;96528.09;;;15.89;88.62
73429;BME280;61643;49.564;17.412;2023-10-31T00:42:37;96502.75;;;15.85;88.37
73429;BME280;61643;49.564;17.412;2023-10-31T00:45:03;96507.06;;;15.86;89.35
73429;BME280;61643;49.564;17.412;2023-10-31T00:47:30;96501.31;;;15.88;88.50
73429;BME280;61643;49.564;17.412;2023-10-31T00:49:55;96508.31;;;15.89;88.68
73429;BME280;61643;49.564;17.412;2023-10-31T00:52:21;96505.28;;;15.90;87.36
73429;BME280;61643;49.564;17.412;2023-10-31T00:54:47;96502.16;;;16.00;87.20
73429;BME280;61643;49.564;17.412;2023-10-31T00:57:13;96499.44;;;16.00;87.63
73429;BME280;61643;49.564;17.412;2023-10-31T00:59:39;96507.03;;;16.07;86.75
73429;BME280;61643;49.564;17.412;2023-10-31T01:02:05;96504.88;;;16.00;88.05
73429;BME280;61643;49.564;17.412;2023-10-31T01:04:31;96499.31;;;15.97;88.29
73429;BME280;61643;49.564;17.412;2023-10-31T01:06:57;96503.00;;;15.92;89.16
73429;BME280;61643;49.564;17.412;2023-10-31T01:09:23;96495.41;;;15.86;88.97
73429;BME280;61643;49.564;17.412;2023-10-31T01:11:49;96495.22;;;15.91;88.16
73429;BME280;61643;49.564;17.412;2023-10-31T01:14:15;96505.28;;;15.90;88.92
73429;BME280;61643;49.564;17.412;2023-10-31T01:16:41;96497.81;;;15.87;88.49
73429;BME280;61643;49.564;17.412;2023-10-31T01:19:07;96488.75;;;15.83;88.44
73429;BME280;61643;49.564;17.412;2023-10-31T01:21:33;96500.53;;;15.87;89.09
73429;BME280;61643;49.564;17.412;2023-10-31T01:23:59;96492.03;;;15.89;87.96
73429;BME280;61643;49.564;17.412;2023-10-31T01:26:25;96477.88;;;15.83;89.39
73429;BME280;61643;49.564;17.412;2023-10-31T01:28:52;96470.06;;;15.82;88.93
73429;BME280;61643;49.564;17.412;2023-10-31T01:31:18;96463.47;;;15.91;88.03
73429;BME280;61643;49.564;17.412;2023-10-31T01:33:45;96455.09;;;15.96;87.01
73429;BME280;61643;49.564;17.412;2023-10-31T01:36:11;96463.47;;;15.91;88.22
73429;BME280;61643;49.564;17.412;2023-10-31T01:38:38;96477.47;;;15.93;87.58
73429;BME280;61643;49.564;17.412;2023-10-31T01:41:04;96449.22;;;15.94;88.13
73429;BME280;61643;49.564;17.412;2023-10-31T01:43:37;96453.38;;;15.92;88.11
73429;BME280;61643;49.564;17.412;2023-10-31T01:46:04;96461.19;;;15.93;87.89
73429;BME280;61643;49.564;17.412;2023-10-31T01:48:32;96438.69;;;15.93;87.88
73429;BME280;61643;49.564;17.412;2023-10-31T01:50:59;96437.22;;;15.95;88.21
73429;BME280;61643;49.564;17.412;2023-10-31T01:53:27;96444.97;;;16.05;86.40
73429;BME280;61643;49.564;17.412;2023-10-31T01:55:55;96451.97;;;16.06;87.11
73429;BME280;61643;49.564;17.412;2023-10-31T01:58:25;96444.50;;;16.03;87.91
73429;BME280;61643;49.564;17.412;2023-10-31T02:00:55;96431.53;;;16.09;86.04
73429;BME280;61643;49.564;17.412;2023-10-31T02:03:21;96436.59;;;16.10;86.79
73429;BME280;61643;49.564;17.412;2023-10-31T02:05:47;96424.50;;;16.08;87.11
73429;BME280;61643;49.564;17.412;2023-10-31T02:08:13;96425.84;;;16.02;87.17
73429;BME280;61643;49.564;17.412;2023-10-31T02:10:39;96425.97;;;16.05;87.00
73429;BME280;61643;49.564;17.412;2023-10-31T02:13:12;96420.75;;;16.00;88.45
73429;BME280;61643;49.564;17.412;2023-10-31T02:15:39;96417.09;;;15.96;87.73
73429;BME280;61643;49.564;17.412;2023-10-31T02:18:06;96424.13;;;15.97;88.43
73429;BME280;61643;49.564;17.412;2023-10-31T02:20:32;96410.75;;;15.92;88.93
73429;BME280;61643;49.564;17.412;2023-10-31T02:22:58;96412.56;;;15.88;89.34
73429;BME280;61643;49.564;17.412;2023-10-31T02:25:24;96400.00;;;15.84;89.67
73429;BME280;61643;49.564;17.412;2023-10-31T02:27:50;96394.91;;;15.82;89.12
73429;BME280;61643;49.564;17.412;2023-10-31T02:30:16;96386.78;;;15.82;89.66
73429;BME280;61643;49.564;17.412;2023-10-31T02:32:42;96380.22;;;15.83;88.74
73429;BME280;61643;49.564;17.412;2023-10-31T02:35:08;96372.41;;;15.82;89.41
73429;BME280;61643;49.564;17.412;2023-10-31T02:37:34;96386.09;;;15.85;89.42
73429;BME280;61643;49.564;17.412;2023-10-31T02:40:00;96372.53;;;15.85;89.40
73429;BME280;61643;49.564;17.412;2023-10-31T02:42:26;96383.84;;;15.87;89.05
73429;BME280;61643;49.564;17.412;2023-10-31T02:44:53;96377.09;;;15.93;89.25
73429;BME280;61643;49.564;17.412;2023-10-31T02:47:19;96382.94;;;15.95;88.92
73429;BME280;61643;49.564;17.412;2023-10-31T02:49:45;96380.59;;;15.94;89.54
73429;BME280;61643;49.564;17.412;2023-10-31T02:52:11;96383.63;;;15.92;89.12
73429;BME280;61643;49.564;17.412;2023-10-31T02:54:37;96361.47;;;15.90;89.82
73429;BME280;61643;49.564;17.412;2023-10-31T02:57:04;96358.09;;;15.93;89.48
73429;BME280;61643;49.564;17.412;2023-10-31T02:59:30;96346.78;;;15.91;89.18
73429;BME280;61643;49.564;17.412;2023-10-31T03:01:56;96346.44;;;15.93;89.89
73429;BME280;61643;49.564;17.412;2023-10-31T03:04:23;96348.59;;;15.87;90.94
73429;BME280;61643;49.564;17.412;2023-10-31T03:06:49;96345.09;;;15.87;90.26
73429;BME280;61643;49.564;17.412;2023-10-31T03:09:15;96346.06;;;15.82;90.28
73429;BME280;61643;49.564;17.412;2023-10-31T03:11:41;96347.19;;;15.81;90.98
73429;BME280;61643;49.564;17.412;2023-10-31T03:14:07;96348.34;;;15.80;90.35
73429;BME280;61643;49.564;17.412;2023-10-31T03:16:33;96351.06;;;15.80;90.17
73429;BME280;61643;49.564;17.412;2023-10-31T03:18:59;96357.94;;;15.77;90.44
73429;BME280;61643;49.564;17.412;2023-10-31T03:21:25;96355.88;;;15.74;91.64
73429;BME280;61643;49.564;17.412;2023-10-31T03:23:52;96357.81;;;15.74;92.09
73429;BME280;61643;49.564;17.412;2023-10-31T03:26:21;96357.69;;;15.70;91.77
73429;BME280;61643;49.564;17.412;2023-10-31T03:28:48;96351.47;;;15.70;92.33
73429;BME280;61643;49.564;17.412;2023-10-31T03:31:15;96357.13;;;15.65;93.11
73429;BME280;61643;49.564;17.412;2023-10-31T03:33:41;96359.81;;;15.65;94.13
73429;BME280;61643;49.564;17.412;2023-10-31T03:36:08;96369.31;;;15.59;94.41
73429;BME280;61643;49.564;17.412;2023-10-31T03:38:35;96368.03;;;15.56;95.63
73429;BME280;61643;49.564;17.412;2023-10-31T03:41:01;96365.72;;;15.46;96.99
73429;BME280;61643;49.564;17.412;2023-10-31T03:43:28;96353.63;;;15.44;97.31
73429;BME280;61643;49.564;17.412;2023-10-31T03:45:54;96347.94;;;15.37;97.97
73429;BME280;61643;49.564;17.412;2023-10-31T03:48:20;96344.97;;;15.30;98.19
73429;BME280;61643;49.564;17.412;2023-10-31T03:50:46;96342.47;;;15.24;97.95
73429;BME280;61643;49.564;17.412;2023-10-31T03:53:12;96347.06;;;15.24;97.95
73429;BME280;61643;49.564;17.412;2023-10-31T03:55:38;96346.63;;;15.22;97.87
73429;BME280;61643;49.564;17.412;2023-10-31T03:58:04;96330.38;;;15.22;97.46
73429;BME280;61643;49.564;17.412;2023-10-31T04:00:31;96324.47;;;15.20;98.74
73429;BME280;61643;49.564;17.412;2023-10-31T04:02:57;96318.25;;;15.19;97.55
73429;BME280;61643;49.564;17.412;2023-10-31T04:05:23;96312.38;;;15.17;98.11
73429;BME280;61643;49.564;17.412;2023-10-31T04:07:49;96319.84;;;15.20;97.41
73429;BME280;61643;49.564;17.412;2023-10-31T04:10:16;96324.03;;;15.18;97.09
73429;BME280;61643;49.564;17.412;2023-10-31T04:12:43;96310.59;;;15.21;95.88
73429;BME280;61643;49.564;17.412;2023-10-31T04:15:09;96306.66;;;15.19;96.87
73429;BME280;61643;49.564;17.412;2023-10-31T04:17:35;96306.53;;;15.15;97.67
73429;BME280;61643;49.564;17.412;2023-10-31T04:20:02;96306.25;;;15.08;98.13
73429;BME280;61643;49.564;17.412;2023-10-31T04:22:28;96310.47;;;15.18;94.94
73429;BME280;61643;49.564;17.412;2023-10-31T04:24:54;96313.31;;;15.21;95.35
73429;BME280;61643;49.564;17.412;2023-10-31T04:27:20;96318.72;;;15.21;96.29
73429;BME280;61643;49.564;17.412;2023-10-31T04:29:46;96317.41;;;15.07;98.67
73429;BME280;61643;49.564;17.412;2023-10-31T04:32:12;96327.38;;;14.94;100.00
73429;BME280;61643;49.564;17.412;2023-10-31T04:34:38;96323.34;;;14.79;100.00
73429;BME280;61643;49.564;17.412;2023-10-31T04:37:04;96330.44;;;14.72;100.00
73429;BME280;61643;49.564;17.412;2023-10-31T04:39:30;96327.91;;;14.67;100.00
73429;BME280;61643;49.564;17.412;2023-10-31T04:41:56;96347.66;;;14.67;100.00
73429;BME280;61643;49.564;17.412;2023-10-31T04:44:22;96331.13;;;14.60;100.00
73429;BME280;61643;49.564;17.412;2023-10-31T04:46:48;96356.16;;;14.57;100.00
73429;BME280;61643;49.564;17.412;2023-10-31T04:49:15;96357.00;;;14.49;100.00
73429;BME280;61643;49.564;17.412;2023-10-31T04:51:43;96359.28;;;14.39;100.00
73429;BME280;61643;49.564;17.412;2023-10-31T04:54:09;96373.13;;;14.37;100.00
73429;BME280;61643;49.564;17.412;2023-10-31T04:56:36;96383.00;;;14.33;100.00
73429;BME280;61643;49.564;17.412;2023-10-31T04:59:02;96382.69;;;14.26;100.00
73429;BME280;61643;49.564;17.412;2023-10-31T05:01:28;96391.47;;;14.23;100.00
73429;BME280;61643;49.564;17.412;2023-10-31T05:03:54;96404.19;;;14.22;100.00
73429;BME280;61643;49.564;17.412;2023-10-31T05:06:21;96407.09;;;14.17;100.00
73429;BME280;61643;49.564;17.412;2023-10-31T05:08:48;96409.66;;;14.14;100.00
73429;BME280;61643;49.564;17.412;2023-10-31T05:11:17;96402.97;;;14.11;100.00
73429;BME280;61643;49.564;17.412;2023-10-31T05:13:44;96413.31;;;14.09;100.00
73429;BME280;61643;49.564;17.412;2023-10-31T05:16:10;96412.06;;;14.07;100.00
73429;BME280;61643;49.564;17.412;2023-10-31T05:18:38;96410.97;;;13.99;100.00
73429;BME280;61643;49.564;17.412;2023-10-31T05:21:04;96405.88;;;13.89;100.00
73429;BME280;61643;49.564;17.412;2023-10-31T05:23:30;96413.22;;;13.89;100.00
73429;BME280;61643;49.564;17.412;2023-10-31T05:25:57;96418.94;;;13.87;100.00
73429;BME280;61643;49.564;17.412;2023-10-31T05:28:23;96427.84;;;13.79;100.00
73429;BME280;61643;49.564;17.412;2023-10-31T05:30:51;96424.69;;;13.77;100.00
73429;BME280;61643;49.564;17.412;2023-10-31T05:33:17;96439.16;;;13.81;100.00
73429;BME280;61643;49.564;17.412;2023-10-31T05:35:43;96442.31;;;13.83;100.00
73429;BME280;61643;49.564;17.412;2023-10-31T05:38:09;96437.09;;;13.78;100.00
73429;BME280;61643;49.564;17.412;2023-10-31T05:40:35;96439.16;;;13.72;100.00
73429;BME280;61643;49.564;17.412;2023-10-31T05:43:01;96458.59;;;13.74;100.00
73429;BME280;61643;49.564;17.412;2023-10-31T05:45:30;96462.38;;;13.73;100.00
73429;BME280;61643;49.564;17.412;2023-10-31T05:47:56;96466.19;;;13.72;100.00
73429;BME280;61643;49.564;17.412;2023-10-31T05:50:22;96478.13;;;13.71;100.00
73429;BME280;61643;49.564;17.412;2023-10-31T05:52:48;96486.72;;;13.73;100.00
73429;BME280;61643;49.564;17.412;2023-10-31T05:55:14;96490.38;;;13.69;100.00
73429;BME280;61643;49.564;17.412;2023-10-31T05:57:41;96492.78;;;13.70;100.00
73429;BME280;61643;49.564;17.412;2023-10-31T06:00:07;96507.06;;;13.71;100.00
73429;BME280;61643;49.564;17.412;2023-10-31T06:02:34;96514.88;;;13.72;100.00
73429;BME280;61643;49.564;17.412;2023-10-31T06:05:00;96507.84;;;13.71;100.00
73429;BME280;61643;49.564;17.412;2023-10-31T06:07:26;96514.41;;;13.70;100.00
73429;BME280;61643;49.564;17.412;2023-10-31T06:09:52;96516.94;;;13.67;100.00
73429;BME280;61643;49.564;17.412;2023-10-31T06:12:18;96510.59;;;13.63;100.00
73429;BME280;61643;49.564;17.412;2023-10-31T06:14:44;96504.19;;;13.67;100.00
73429;BME280;61643;49.564;17.412;2023-10-31T06:17:10;96510.91;;;13.70;100.00
73429;BME280;61643;49.564;17.412;2023-10-31T06:19:36;96525.53;;;13.69;100.00
73429;BME280;61643;49.564;17.412;2023-10-31T06:22:03;96531.72;;;13.69;100.00
73429;BME280;61643;49.564;17.412;2023-10-31T06:24:29;96536.50;;;13.72;100.00
73429;BME280;61643;49.564;17.412;2023-10-31T06:26:55;96531.72;;;13.69;100.00
73429;BME280;61643;49.564;17.412;2023-10-31T06:29:21;96538.56;;;13.67;100.00
73429;BME280;61643;49.564;17.412;2023-10-31T06:31:47;96545.56;;;13.68;100.00
73429;BME280;61643;49.564;17.412;2023-10-31T06:34:13;96547.16;;;13.69;100.00
73429;BME280;61643;49.564;17.412;2023-10-31T06:36:39;96539.84;;;13.69;100.00
73429;BME280;61643;49.564;17.412;2023-10-31T06:39:05;96541.75;;;13.69;100.00
73429;BME280;61643;49.564;17.412;2023-10-31T06:41:33;96536.34;;;13.69;100.00
73429;BME280;61643;49.564;17.412;2023-10-31T06:43:58;96562.72;;;13.72;100.00
73429;BME280;61643;49.564;17.412;2023-10-31T06:46:24;96561.13;;;13.71;100.00
73429;BME280;61643;49.564;17.412;2023-10-31T06:48:51;96559.88;;;13.68;100.00
73429;BME280;61643;49.564;17.412;2023-10-31T06:51:17;96552.25;;;13.70;100.00
73429;BME280;61643;49.564;17.412;2023-10-31T06:53:43;96554.63;;;13.72;100.00
73429;BME280;61643;49.564;17.412;2023-10-31T06:56:09;96557.97;;;13.69;100.00
73429;BME280;61643;49.564;17.412;2023-10-31T06:58:35;96554.78;;;13.67;100.00
73429;BME280;61643;49.564;17.412;2023-10-31T07:01:01;96553.19;;;13.66;100.00
73429;BME280;61643;49.564;17.412;2023-10-31T07:03:27;96553.84;;;13.63;100.00
73429;BME280;61643;49.564;17.412;2023-10-31T07:05:53;96574.97;;;13.61;100.00
73429;BME280;61643;49.564;17.412;2023-10-31T07:08:19;96576.41;;;13.58;100.00
73429;BME280;61643;49.564;17.412;2023-10-31T07:10:45;96590.22;;;13.57;100.00
73429;BME280;61643;49.564;17.412;2023-10-31T07:13:11;96579.41;;;13.48;100.00
73429;BME280;61643;49.564;17.412;2023-10-31T07:15:37;96587.19;;;13.50;100.00
73429;BME280;61643;49.564;17.412;2023-10-31T07:18:05;96587.97;;;13.50;100.00
73429;BME280;61643;49.564;17.412;2023-10-31T07:20:33;96594.03;;;13.47;100.00
73429;BME280;61643;49.564;17.412;2023-10-31T07:22:59;96602.44;;;13.46;100.00
73429;BME280;61643;49.564;17.412;2023-10-31T07:25:25;96596.25;;;13.45;100.00
73429;BME280;61643;49.564;17.412;2023-10-31T07:27:51;96591.16;;;13.44;100.00
73429;BME280;61643;49.564;17.412;2023-10-31T07:30:17;96584.16;;;13.43;100.00
73429;BME280;61643;49.564;17.412;2023-10-31T07:32:43;96595.94;;;13.47;100.00
73429;BME280;61643;49.564;17.412;2023-10-31T07:35:09;96608.81;;;13.50;100.00
73429;BME280;61643;49.564;17.412;2023-10-31T07:37:35;96608.81;;;13.50;100.00
73429;BME280;61643;49.564;17.412;2023-10-31T07:40:01;96609.31;;;13.52;100.00
73429;BME280;61643;49.564;17.412;2023-10-31T07:42:27;96621.38;;;13.54;100.00
73429;BME280;61643;49.564;17.412;2023-10-31T07:44:53;96623.00;;;13.55;100.00
73429;BME280;61643;49.564;17.412;2023-10-31T07:47:18;96641.56;;;13.57;100.00
73429;BME280;61643;49.564;17.412;2023-10-31T07:49:44;96646.22;;;13.56;100.00
73429;BME280;61643;49.564;17.412;2023-10-31T07:52:10;96651.28;;;13.58;100.00
73429;BME280;61643;49.564;17.412;2023-10-31T07:54:39;96656.69;;;13.58;100.00
73429;BME280;61643;49.564;17.412;2023-10-31T07:57:09;96656.06;;;13.61;100.00
73429;BME280;61643;49.564;17.412;2023-10-31T07:59:35;96641.91;;;13.64;100.00
73429;BME280;61643;49.564;17.412;2023-10-31T08:02:01;96640.34;;;13.63;100.00
73429;BME280;61643;49.564;17.412;2023-10-31T08:04:29;96658.63;;;13.66;100.00
73429;BME280;61643;49.564;17.412;2023-10-31T08:06:55;96659.91;;;13.68;100.00
73429;BME280;61643;49.564;17.412;2023-10-31T08:09:21;96648.97;;;13.73;100.00
73429;BME280;61643;49.564;17.412;2023-10-31T08:11:47;96652.47;;;13.74;100.00
73429;BME280;61643;49.564;17.412;2023-10-31T08:14:13;96648.78;;;13.78;100.00
73429;BME280;61643;49.564;17.412;2023-10-31T08:16:42;96655.16;;;13.82;100.00
73429;BME280;61643;49.564;17.412;2023-10-31T08:19:08;96659.16;;;13.85;100.00
73429;BME280;61643;49.564;17.412;2023-10-31T08:21:34;96648.81;;;13.87;100.00
73429;BME280;61643;49.564;17.412;2023-10-31T08:24:02;96656.78;;;13.92;100.00
73429;BME280;61643;49.564;17.412;2023-10-31T08:26:30;96659.97;;;13.94;100.00
73429;BME280;61643;49.564;17.412;2023-10-31T08:28:56;96669.50;;;14.00;100.00
73429;BME280;61643;49.564;17.412;2023-10-31T08:31:22;96696.25;;;14.02;100.00
73429;BME280;61643;49.564;17.412;2023-10-31T08:33:49;96690.69;;;13.98;100.00
73429;BME280;61643;49.564;17.412;2023-10-31T08:36:15;96713.28;;;14.02;100.00
73429;BME280;61643;49.564;17.412;2023-10-31T08:38:41;96722.22;;;14.03;100.00
73429;BME280;61643;49.564;17.412;2023-10-31T08:41:07;96737.00;;;14.05;100.00
73429;BME280;61643;49.564;17.412;2023-10-31T08:43:33;96742.25;;;14.02;100.00
73429;BME280;61643;49.564;17.412;2023-10-31T08:45:59;96726.31;;;14.00;100.00
73429;BME280;61643;49.564;17.412;2023-10-31T08:48:25;96717.75;;;13.98;100.00
73429;BME280;61643;49.564;17.412;2023-10-31T08:50:50;96710.25;;;13.95;100.00
73429;BME280;61643;49.564;17.412;2023-10-31T08:53:16;96727.41;;;13.91;100.00
73429;BME280;61643;49.564;17.412;2023-10-31T08:55:44;96731.41;;;13.93;100.00
73429;BME280;61643;49.564;17.412;2023-10-31T08:58:14;96706.88;;;13.90;100.00
73429;BME280;61643;49.564;17.412;2023-10-31T09:00:40;96708.78;;;13.89;100.00
73429;BME280;61643;49.564;17.412;2023-10-31T09:03:07;96693.19;;;13.86;100.00
73429;BME280;61643;49.564;17.412;2023-10-31T09:05:33;96712.28;;;13.90;100.00
73429;BME280;61643;49.564;17.412;2023-10-31T09:07:59;96705.47;;;13.92;100.00
73429;BME280;61643;49.564;17.412;2023-10-31T09:10:25;96707.06;;;13.93;100.00
73429;BME280;61643;49.564;17.412;2023-10-31T09:12:52;96701.50;;;13.98;100.00
73429;BME280;61643;49.564;17.412;2023-10-31T09:15:18;96703.91;;;14.00;100.00
73429;BME280;61643;49.564;17.412;2023-10-31T09:17:44;96731.44;;;14.02;100.00
73429;BME280;61643;49.564;17.412;2023-10-31T09:20:10;96739.84;;;14.00;100.00
73429;BME280;61643;49.564;17.412;2023-10-31T09:22:37;96745.09;;;13.97;100.00
73429;BME280;61643;49.564;17.412;2023-10-31T09:25:04;96747.03;;;13.96;100.00
73429;BME280;61643;49.564;17.412;2023-10-31T09:27:30;96747.78;;;13.97;100.00
73429;BME280;61643;49.564;17.412;2023-10-31T09:29:56;96741.63;;;13.96;100.00
73429;BME280;61643;49.564;17.412;2023-10-31T09:32:22;96744.44;;;13.91;100.00
73429;BME280;61643;49.564;17.412;2023-10-31T09:34:48;96753.66;;;13.90;100.00
73429;BME280;61643;49.564;17.412;2023-10-31T09:37:14;96766.25;;;13.95;100.00
73429;BME280;61643;49.564;17.412;2023-10-31T09:39:41;96768.16;;;13.94;100.00
73429;BME280;61643;49.564;17.412;2023-10-31T09:42:06;96761.00;;;13.98;100.00
73429;BME280;61643;49.564;17.412;2023-10-31T09:44:33;96764.19;;;14.00;100.00
73429;BME280;61643;49.564;17.412;2023-10-31T09:47:01;96750.53;;;14.05;100.00
73429;BME280;61643;49.564;17.412;2023-10-31T09:49:27;96741.31;;;14.06;100.00
73429;BME280;61643;49.564;17.412;2023-10-31T09:51:54;96736.38;;;14.08;100.00
73429;BME280;61643;49.564;17.412;2023-10-31T09:54:20;96750.88;;;14.12;100.00
73429;BME280;61643;49.564;17.412;2023-10-31T09:56:46;96750.72;;;14.17;100.00
73429;BME280;61643;49.564;17.412;2023-10-31T09:59:15;96766.63;;;14.19;100.00
73429;BME280;61643;49.564;17.412;2023-10-31T10:01:41;96762.66;;;14.16;100.00
73429;BME280;61643;49.564;17.412;2023-10-31T10:04:07;96772.22;;;14.14;100.00
73429;BME280;61643;49.564;17.412;2023-10-31T10:06:33;96772.22;;;14.22;100.00
73429;BME280;61643;49.564;17.412;2023-10-31T10:08:59;96759.81;;;14.21;100.00
73429;BME280;61643;49.564;17.412;2023-10-31T10:11:28;96757.28;;;14.25;100.00
73429;BME280;61643;49.564;17.412;2023-10-31T10:13:56;96753.28;;;14.22;100.00
73429;BME280;61643;49.564;17.412;2023-10-31T10:16:30;96753.09;;;14.19;100.00
73429;BME280;61643;49.564;17.412;2023-10-31T10:18:56;96747.84;;;14.14;100.00
73429;BME280;61643;49.564;17.412;2023-10-31T10:21:22;96742.28;;;14.10;100.00
73429;BME280;61643;49.564;17.412;2023-10-31T10:23:51;96740.69;;;14.09;100.00
73429;BME280;61643;49.564;17.412;2023-10-31T10:26:17;96748.94;;;14.04;100.00
73429;BME280;61643;49.564;17.412;2023-10-31T10:28:47;96741.78;;;14.00;100.00
73429;BME280;61643;49.564;17.412;2023-10-31T10:31:14;96751.16;;;14.02;100.00
73429;BME280;61643;49.564;17.412;2023-10-31T10:33:41;96741.78;;;14.00;100.00
73429;BME280;61643;49.564;17.412;2023-10-31T10:36:10;96744.94;;;14.02;100.00
73429;BME280;61643;49.564;17.412;2023-10-31T10:38:36;96741.44;;;14.01;100.00
73429;BME280;61643;49.564;17.412;2023-10-31T10:41:04;96739.84;;;14.00;100.00
73429;BME280;61643;49.564;17.412;2023-10-31T10:43:37;96719.59;;;13.89;100.00
73429;BME280;61643;49.564;17.412;2023-10-31T10:46:04;96722.66;;;13.88;100.00
73429;BME280;61643;49.564;17.412;2023-10-31T10:48:33;96726.44;;;13.87;100.00
73429;BME280;61643;49.564;17.412;2023-10-31T10:51:14;96725.97;;;13.85;100.00
73429;BME280;61643;49.564;17.412;2023-10-31T10:53:57;96725.00;;;13.89;100.00
73429;BME280;61643;49.564;17.412;2023-10-31T10:56:29;96726.63;;;13.90;100.00
73429;BME280;61643;49.564;17.412;2023-10-31T10:59:03;96730.44;;;13.89;100.00
73429;BME280;61643;49.564;17.412;2023-10-31T11:01:31;96738.06;;;13.87;100.00
73429;BME280;61643;49.564;17.412;2023-10-31T11:03:58;96725.94;;;13.76;100.00
73429;BME280;61643;49.564;17.412;2023-10-31T11:06:25;96725.31;;;13.79;100.00
73429;BME280;61643;49.564;17.412;2023-10-31T11:08:52;96716.25;;;13.84;100.00
73429;BME280;61643;49.564;17.412;2023-10-31T11:11:19;96726.44;;;13.87;100.00
73429;BME280;61643;49.564;17.412;2023-10-31T11:13:46;96706.72;;;13.86;100.00
73429;BME280;61643;49.564;17.412;2023-10-31T11:16:25;96711.03;;;13.87;100.00
73429;BME280;61643;49.564;17.412;2023-10-31T11:18:52;96723.44;;;13.88;100.00
73429;BME280;61643;49.564;17.412;2023-10-31T11:21:18;96724.06;;;13.85;100.00
73429;BME280;61643;49.564;17.412;2023-10-31T11:23:44;96730.09;;;13.82;100.00
73429;BME280;61643;49.564;17.412;2023-10-31T11:26:10;96735.81;;;13.80;100.00
73429;BME280;61643;49.564;17.412;2023-10-31T11:28:36;96728.16;;;13.74;100.00
73429;BME280;61643;49.564;17.412;2023-10-31T11:31:02;96738.81;;;13.70;100.00
73429;BME280;61643;49.564;17.412;2023-10-31T11:33:29;96742.09;;;13.59;100.00
73429;BME280;61643;49.564;17.412;2023-10-31T11:36:03;96747.47;;;13.50;100.00
73429;BME280;61643;49.564;17.412;2023-10-31T11:38:37;96748.75;;;13.53;100.00
73429;BME280;61643;49.564;17.412;2023-10-31T11:41:03;96754.59;;;13.46;100.00
73429;BME280;61643;49.564;17.412;2023-10-31T11:46:04;96749.97;;;13.47;100.00
73429;BME280;61643;49.564;17.412;2023-10-31T11:48:47;96748.19;;;13.42;100.00
73429;BME280;61643;49.564;17.412;2023-10-31T11:51:13;96747.56;;;13.37;100.00
73429;BME280;61643;49.564;17.412;2023-10-31T11:53:39;96750.06;;;13.33;100.00
73429;BME280;61643;49.564;17.412;2023-10-31T11:56:06;96749.91;;;13.29;100.00
73429;BME280;61643;49.564;17.412;2023-10-31T11:58:32;96734.31;;;13.26;100.00
73429;BME280;61643;49.564;17.412;2023-10-31T12:01:04;96738.63;;;13.27;100.00
73429;BME280;61643;49.564;17.412;2023-10-31T12:03:41;96747.66;;;13.23;100.00
73429;BME280;61643;49.564;17.412;2023-10-31T12:06:09;96733.78;;;13.16;100.00
73429;BME280;61643;49.564;17.412;2023-10-31T12:08:37;96735.50;;;13.12;100.00
73429;BME280;61643;49.564;17.412;2023-10-31T12:13:30;96718.66;;;13.15;100.00
73429;BME280;61643;49.564;17.412;2023-10-31T12:15:56;96707.84;;;13.15;100.00
73429;BME280;61643;49.564;17.412;2023-10-31T12:18:24;96709.91;;;13.09;100.00
73429;BME280;61643;49.564;17.412;2023-10-31T12:20:50;96712.47;;;13.14;100.00
73429;BME280;61643;49.564;17.412;2023-10-31T12:23:17;96714.38;;;13.14;100.00
73429;BME280;61643;49.564;17.412;2023-10-31T12:25:50;96708.16;;;13.13;100.00
73429;BME280;61643;49.564;17.412;2023-10-31T12:28:21;96713.56;;;13.13;100.00
73429;BME280;61643;49.564;17.412;2023-10-31T12:30:51;96728.50;;;13.11;100.00
73429;BME280;61643;49.564;17.412;2023-10-31T12:33:21;96737.47;;;13.06;100.00
73429;BME280;61643;49.564;17.412;2023-10-31T12:35:48;96738.91;;;13.04;100.00
73429;BME280;61643;49.564;17.412;2023-10-31T12:38:14;96750.63;;;12.99;100.00
73429;BME280;61643;49.564;17.412;2023-10-31T12:40:42;96757.56;;;12.92;100.00
73429;BME280;61643;49.564;17.412;2023-10-31T12:43:09;96774.09;;;12.90;100.00
73429;BME280;61643;49.564;17.412;2023-10-31T12:45:36;96778.00;;;12.84;100.00